sensor_id;sensor_type;location;lat;lon;timestamp;temperature;humidity
26186;DHT22;20067;48.764;9.176;2022-12-10T00:00:39;2.40;91.30
26186;DHT22;20067;48.764;9.176;2022-12-10T00:03:04;2.40;91.30
26186;DHT22;20067;48.764;9.176;2022-12-10T00:05:33;2.40;91.30
26186;DHT22;20067;48.764;9.176;2022-12-10T00:07:59;2.30;91.30
26186;DHT22;20067;48.764;9.176;2022-12-10T00:10:24;2.30;91.30
26186;DHT22;20067;48.764;9.176;2022-12-10T00:12:50;2.40;91.30
26186;DHT22;20067;48.764;9.176;2022-12-10T00:15:15;2.40;91.30
26186;DHT22;20067;48.764;9.176;2022-12-10T00:17:41;2.60;91.30
26186;DHT22;20067;48.764;9.176;2022-12-10T00:20:08;2.60;91.30
26186;DHT22;20067;48.764;9.176;2022-12-10T00:22:34;2.50;91.30
26186;DHT22;20067;48.764;9.176;2022-12-10T00:24:59;2.50;91.30
26186;DHT22;20067;48.764;9.176;2022-12-10T00:27:25;2.40;91.30
26186;DHT22;20067;48.764;9.176;2022-12-10T00:29:51;2.40;91.30
26186;DHT22;20067;48.764;9.176;2022-12-10T00:32:16;2.50;91.30
26186;DHT22;20067;48.764;9.176;2022-12-10T00:34:42;2.50;91.30
26186;DHT22;20067;48.764;9.176;2022-12-10T00:37:07;2.40;91.30
26186;DHT22;20067;48.764;9.176;2022-12-10T00:39:33;2.40;91.30
26186;DHT22;20067;48.764;9.176;2022-12-10T00:41:58;2.40;91.30
26186;DHT22;20067;48.764;9.176;2022-12-10T00:44:24;2.50;91.30
26186;DHT22;20067;48.764;9.176;2022-12-10T00:46:49;2.50;91.30
26186;DHT22;20067;48.764;9.176;2022-12-10T00:49:15;2.60;91.30
26186;DHT22;20067;48.764;9.176;2022-12-10T00:51:41;2.60;91.30
26186;DHT22;20067;48.764;9.176;2022-12-10T00:54:06;2.70;91.30
26186;DHT22;20067;48.764;9.176;2022-12-10T00:56:33;2.70;91.30
26186;DHT22;20067;48.764;9.176;2022-12-10T00:59:00;2.80;91.30
26186;DHT22;20067;48.764;9.176;2022-12-10T01:01:41;2.70;91.30
26186;DHT22;20067;48.764;9.176;2022-12-10T01:04:10;2.70;91.30
26186;DHT22;20067;48.764;9.176;2022-12-10T01:06:50;2.70;91.30
26186;DHT22;20067;48.764;9.176;2022-12-10T01:09:22;2.80;91.30
26186;DHT22;20067;48.764;9.176;2022-12-10T01:11:50;2.80;91.30
26186;DHT22;20067;48.764;9.176;2022-12-10T01:14:19;2.90;91.30
26186;DHT22;20067;48.764;9.176;2022-12-10T01:16:45;2.80;91.30
26186;DHT22;20067;48.764;9.176;2022-12-10T01:19:11;2.80;91.30
26186;DHT22;20067;48.764;9.176;2022-12-10T01:21:37;2.80;91.30
26186;DHT22;20067;48.764;9.176;2022-12-10T01:24:03;2.90;91.30
26186;DHT22;20067;48.764;9.176;2022-12-10T01:26:31;2.70;91.30
26186;DHT22;20067;48.764;9.176;2022-12-10T01:28:58;2.70;91.30
26186;DHT22;20067;48.764;9.176;2022-12-10T01:31:26;2.60;91.30
26186;DHT22;20067;48.764;9.176;2022-12-10T01:33:53;2.70;91.30
26186;DHT22;20067;48.764;9.176;2022-12-10T01:36:23;2.80;91.30
26186;DHT22;20067;48.764;9.176;2022-12-10T01:38:50;2.80;91.30
26186;DHT22;20067;48.764;9.176;2022-12-10T01:41:20;2.80;91.30
26186;DHT22;20067;48.764;9.176;2022-12-10T01:46:25;2.70;91.30
26186;DHT22;20067;48.764;9.176;2022-12-10T01:48:52;2.80;91.30
26186;DHT22;20067;48.764;9.176;2022-12-10T01:51:19;2.60;91.30
26186;DHT22;20067;48.764;9.176;2022-12-10T01:53:45;2.40;91.30
26186;DHT22;20067;48.764;9.176;2022-12-10T01:56:11;2.20;91.30
26186;DHT22;20067;48.764;9.176;2022-12-10T01:58:37;2.20;91.30
26186;DHT22;20067;48.764;9.176;2022-12-10T02:04:08;2.10;91.30
26186;DHT22;20067;48.764;9.176;2022-12-10T02:12:17;2.20;91.30
26186;DHT22;20067;48.764;9.176;2022-12-10T02:20:04;2.40;91.30
26186;DHT22;20067;48.764;9.176;2022-12-10T02:22:36;2.30;91.30
26186;DHT22;20067;48.764;9.176;2022-12-10T02:25:06;2.40;91.30
26186;DHT22;20067;48.764;9.176;2022-12-10T02:30:22;2.50;91.30
26186;DHT22;20067;48.764;9.176;2022-12-10T02:32:48;2.50;91.30
26186;DHT22;20067;48.764;9.176;2022-12-10T02:35:28;2.40;91.30
26186;DHT22;20067;48.764;9.176;2022-12-10T02:38:02;2.40;91.30
26186;DHT22;20067;48.764;9.176;2022-12-10T02:40:32;2.50;91.30
26186;DHT22;20067;48.764;9.176;2022-12-10T02:42:58;2.40;91.30
26186;DHT22;20067;48.764;9.176;2022-12-10T02:45:27;2.40;91.30
26186;DHT22;20067;48.764;9.176;2022-12-10T02:47:57;2.50;91.30
26186;DHT22;20067;48.764;9.176;2022-12-10T02:50:24;2.50;91.30
26186;DHT22;20067;48.764;9.176;2022-12-10T02:52:50;2.50;91.30
26186;DHT22;20067;48.764;9.176;2022-12-10T02:55:17;2.40;91.30
26186;DHT22;20067;48.764;9.176;2022-12-10T03:00:23;2.10;91.30
26186;DHT22;20067;48.764;9.176;2022-12-10T03:05:20;2.00;91.30
26186;DHT22;20067;48.764;9.176;2022-12-10T03:07:57;2.00;91.30
26186;DHT22;20067;48.764;9.176;2022-12-10T03:10:39;2.30;91.30
26186;DHT22;20067;48.764;9.176;2022-12-10T03:13:08;2.40;91.30
26186;DHT22;20067;48.764;9.176;2022-12-10T03:15:38;2.30;91.30
26186;DHT22;20067;48.764;9.176;2022-12-10T03:18:07;2.20;91.30
26186;DHT22;20067;48.764;9.176;2022-12-10T03:20:35;2.10;91.30
26186;DHT22;20067;48.764;9.176;2022-12-10T03:23:04;2.10;91.30
26186;DHT22;20067;48.764;9.176;2022-12-10T03:25:32;2.20;91.30
26186;DHT22;20067;48.764;9.176;2022-12-10T03:27:59;2.20;91.30
26186;DHT22;20067;48.764;9.176;2022-12-10T03:30:26;2.20;91.30
26186;DHT22;20067;48.764;9.176;2022-12-10T03:32:52;2.30;91.30
26186;DHT22;20067;48.764;9.176;2022-12-10T03:35:20;2.20;91.30
26186;DHT22;20067;48.764;9.176;2022-12-10T03:37:48;2.10;91.30
26186;DHT22;20067;48.764;9.176;2022-12-10T03:40:17;2.20;91.30
26186;DHT22;20067;48.764;9.176;2022-12-10T03:42:43;2.20;91.30
26186;DHT22;20067;48.764;9.176;2022-12-10T03:45:09;2.20;91.30
26186;DHT22;20067;48.764;9.176;2022-12-10T03:47:35;2.30;91.30
26186;DHT22;20067;48.764;9.176;2022-12-10T03:50:01;2.40;91.30
26186;DHT22;20067;48.764;9.176;2022-12-10T03:52:26;2.40;91.30
26186;DHT22;20067;48.764;9.176;2022-12-10T03:54:52;2.40;91.30
26186;DHT22;20067;48.764;9.176;2022-12-10T03:57:17;2.30;91.30
26186;DHT22;20067;48.764;9.176;2022-12-10T03:59:43;2.40;91.30
26186;DHT22;20067;48.764;9.176;2022-12-10T04:02:09;2.40;91.30
26186;DHT22;20067;48.764;9.176;2022-12-10T04:04:36;2.50;91.30
26186;DHT22;20067;48.764;9.176;2022-12-10T04:07:02;2.40;91.30
26186;DHT22;20067;48.764;9.176;2022-12-10T04:09:27;2.50;91.30
26186;DHT22;20067;48.764;9.176;2022-12-10T04:11:57;2.60;91.30
26186;DHT22;20067;48.764;9.176;2022-12-10T04:14:23;2.60;91.30
26186;DHT22;20067;48.764;9.176;2022-12-10T04:17:07;2.50;91.30
26186;DHT22;20067;48.764;9.176;2022-12-10T04:19:33;2.30;91.30
26186;DHT22;20067;48.764;9.176;2022-12-10T04:21:59;2.30;91.30
26186;DHT22;20067;48.764;9.176;2022-12-10T04:24:43;2.40;91.30
26186;DHT22;20067;48.764;9.176;2022-12-10T04:27:38;2.50;91.30
26186;DHT22;20067;48.764;9.176;2022-12-10T04:30:07;2.60;91.30
26186;DHT22;20067;48.764;9.176;2022-12-10T04:32:33;2.70;91.30
26186;DHT22;20067;48.764;9.176;2022-12-10T04:34:59;2.70;91.30
26186;DHT22;20067;48.764;9.176;2022-12-10T04:37:27;2.80;91.30
26186;DHT22;20067;48.764;9.176;2022-12-10T04:39:53;2.80;91.30
26186;DHT22;20067;48.764;9.176;2022-12-10T04:42:20;2.80;91.30
26186;DHT22;20067;48.764;9.176;2022-12-10T04:44:46;2.70;91.30
26186;DHT22;20067;48.764;9.176;2022-12-10T04:47:12;2.70;91.30
26186;DHT22;20067;48.764;9.176;2022-12-10T04:49:38;2.50;91.30
26186;DHT22;20067;48.764;9.176;2022-12-10T04:52:04;2.50;91.30
26186;DHT22;20067;48.764;9.176;2022-12-10T04:54:30;2.40;91.30
26186;DHT22;20067;48.764;9.176;2022-12-10T04:56:56;2.50;91.30
26186;DHT22;20067;48.764;9.176;2022-12-10T04:59:22;2.50;91.30
26186;DHT22;20067;48.764;9.176;2022-12-10T05:01:48;2.50;91.30
26186;DHT22;20067;48.764;9.176;2022-12-10T05:04:16;2.50;91.30
26186;DHT22;20067;48.764;9.176;2022-12-10T05:06:42;2.50;91.30
26186;DHT22;20067;48.764;9.176;2022-12-10T05:09:09;2.50;91.30
26186;DHT22;20067;48.764;9.176;2022-12-10T05:11:35;2.50;91.30
26186;DHT22;20067;48.764;9.176;2022-12-10T05:14:01;2.50;91.30
26186;DHT22;20067;48.764;9.176;2022-12-10T05:16:29;2.60;91.30
26186;DHT22;20067;48.764;9.176;2022-12-10T05:18:56;2.40;91.30
26186;DHT22;20067;48.764;9.176;2022-12-10T05:21:23;2.40;91.30
26186;DHT22;20067;48.764;9.176;2022-12-10T05:23:51;2.40;91.30
26186;DHT22;20067;48.764;9.176;2022-12-10T05:26:22;2.40;91.30
26186;DHT22;20067;48.764;9.176;2022-12-10T05:28:53;2.30;91.30
26186;DHT22;20067;48.764;9.176;2022-12-10T05:31:24;2.30;91.30
26186;DHT22;20067;48.764;9.176;2022-12-10T05:33:50;2.30;91.30
26186;DHT22;20067;48.764;9.176;2022-12-10T05:36:18;2.30;91.30
26186;DHT22;20067;48.764;9.176;2022-12-10T05:38:45;2.30;91.30
26186;DHT22;20067;48.764;9.176;2022-12-10T05:41:17;2.30;91.30
26186;DHT22;20067;48.764;9.176;2022-12-10T05:43:43;2.20;91.30
26186;DHT22;20067;48.764;9.176;2022-12-10T05:46:11;2.10;91.30
26186;DHT22;20067;48.764;9.176;2022-12-10T05:48:37;2.00;91.30
26186;DHT22;20067;48.764;9.176;2022-12-10T05:51:08;2.10;91.30
26186;DHT22;20067;48.764;9.176;2022-12-10T05:53:35;2.20;91.30
26186;DHT22;20067;48.764;9.176;2022-12-10T05:56:06;2.30;91.30
26186;DHT22;20067;48.764;9.176;2022-12-10T05:58:33;2.30;91.30
26186;DHT22;20067;48.764;9.176;2022-12-10T06:00:58;2.30;91.30
26186;DHT22;20067;48.764;9.176;2022-12-10T06:03:27;2.30;91.30
26186;DHT22;20067;48.764;9.176;2022-12-10T06:05:53;2.30;91.30
26186;DHT22;20067;48.764;9.176;2022-12-10T06:08:19;2.30;91.30
26186;DHT22;20067;48.764;9.176;2022-12-10T06:10:44;2.30;91.30
26186;DHT22;20067;48.764;9.176;2022-12-10T06:13:10;2.20;91.30
26186;DHT22;20067;48.764;9.176;2022-12-10T06:15:39;2.00;91.30
26186;DHT22;20067;48.764;9.176;2022-12-10T06:18:04;2.00;91.30
26186;DHT22;20067;48.764;9.176;2022-12-10T06:20:30;2.10;91.30
26186;DHT22;20067;48.764;9.176;2022-12-10T06:22:56;2.10;91.30
26186;DHT22;20067;48.764;9.176;2022-12-10T06:25:21;2.20;91.30
26186;DHT22;20067;48.764;9.176;2022-12-10T06:27:47;2.20;91.30
26186;DHT22;20067;48.764;9.176;2022-12-10T06:30:13;2.10;91.30
26186;DHT22;20067;48.764;9.176;2022-12-10T06:32:38;2.10;91.30
26186;DHT22;20067;48.764;9.176;2022-12-10T06:35:05;2.10;91.30
26186;DHT22;20067;48.764;9.176;2022-12-10T06:37:31;2.00;91.30
26186;DHT22;20067;48.764;9.176;2022-12-10T06:39:56;2.00;91.30
26186;DHT22;20067;48.764;9.176;2022-12-10T06:42:22;2.10;91.30
26186;DHT22;20067;48.764;9.176;2022-12-10T06:44:48;2.10;91.30
26186;DHT22;20067;48.764;9.176;2022-12-10T06:47:13;2.20;91.30
26186;DHT22;20067;48.764;9.176;2022-12-10T06:49:40;2.00;91.30
26186;DHT22;20067;48.764;9.176;2022-12-10T06:52:06;1.80;91.30
26186;DHT22;20067;48.764;9.176;2022-12-10T06:54:31;1.80;91.30
26186;DHT22;20067;48.764;9.176;2022-12-10T06:56:57;1.80;91.30
26186;DHT22;20067;48.764;9.176;2022-12-10T06:59:23;1.70;91.30
26186;DHT22;20067;48.764;9.176;2022-12-10T07:01:49;1.60;91.30
26186;DHT22;20067;48.764;9.176;2022-12-10T07:04:15;1.50;91.30
26186;DHT22;20067;48.764;9.176;2022-12-10T07:06:41;1.50;91.30
26186;DHT22;20067;48.764;9.176;2022-12-10T07:09:07;1.50;91.30
26186;DHT22;20067;48.764;9.176;2022-12-10T07:11:35;1.60;91.30
26186;DHT22;20067;48.764;9.176;2022-12-10T07:14:01;1.60;91.30
26186;DHT22;20067;48.764;9.176;2022-12-10T07:16:28;1.80;91.30
26186;DHT22;20067;48.764;9.176;2022-12-10T07:18:56;1.90;91.30
26186;DHT22;20067;48.764;9.176;2022-12-10T07:21:24;2.00;91.30
26186;DHT22;20067;48.764;9.176;2022-12-10T07:23:52;2.00;91.30
26186;DHT22;20067;48.764;9.176;2022-12-10T07:26:19;2.10;91.30
26186;DHT22;20067;48.764;9.176;2022-12-10T07:28:45;2.10;91.30
26186;DHT22;20067;48.764;9.176;2022-12-10T07:31:10;2.20;91.30
26186;DHT22;20067;48.764;9.176;2022-12-10T07:33:36;2.20;91.30
26186;DHT22;20067;48.764;9.176;2022-12-10T07:36:10;2.20;91.30
26186;DHT22;20067;48.764;9.176;2022-12-10T07:38:36;2.10;91.30
26186;DHT22;20067;48.764;9.176;2022-12-10T07:41:07;2.20;91.30
26186;DHT22;20067;48.764;9.176;2022-12-10T07:43:35;2.30;91.30
26186;DHT22;20067;48.764;9.176;2022-12-10T07:46:10;2.30;91.30
26186;DHT22;20067;48.764;9.176;2022-12-10T07:48:37;2.20;91.30
26186;DHT22;20067;48.764;9.176;2022-12-10T07:51:04;2.20;91.30
26186;DHT22;20067;48.764;9.176;2022-12-10T07:53:30;2.20;91.30
26186;DHT22;20067;48.764;9.176;2022-12-10T07:55:55;2.20;91.30
26186;DHT22;20067;48.764;9.176;2022-12-10T07:58:21;2.20;91.30
26186;DHT22;20067;48.764;9.176;2022-12-10T08:00:46;2.10;91.30
26186;DHT22;20067;48.764;9.176;2022-12-10T08:03:12;2.10;91.30
26186;DHT22;20067;48.764;9.176;2022-12-10T08:05:38;2.10;91.30
26186;DHT22;20067;48.764;9.176;2022-12-10T08:08:04;2.10;91.30
26186;DHT22;20067;48.764;9.176;2022-12-10T08:10:32;2.20;91.30
26186;DHT22;20067;48.764;9.176;2022-12-10T08:12:58;2.10;91.30
26186;DHT22;20067;48.764;9.176;2022-12-10T08:15:23;2.10;91.30
26186;DHT22;20067;48.764;9.176;2022-12-10T08:17:49;2.00;91.30
26186;DHT22;20067;48.764;9.176;2022-12-10T08:20:15;2.00;91.30
26186;DHT22;20067;48.764;9.176;2022-12-10T08:22:40;2.10;91.30
26186;DHT22;20067;48.764;9.176;2022-12-10T08:25:06;2.10;91.30
26186;DHT22;20067;48.764;9.176;2022-12-10T08:27:32;2.00;91.30
26186;DHT22;20067;48.764;9.176;2022-12-10T08:29:57;1.90;91.30
26186;DHT22;20067;48.764;9.176;2022-12-10T08:32:23;2.00;91.30
26186;DHT22;20067;48.764;9.176;2022-12-10T08:34:49;2.10;91.30
26186;DHT22;20067;48.764;9.176;2022-12-10T08:37:14;2.10;91.30
26186;DHT22;20067;48.764;9.176;2022-12-10T08:39:40;2.00;91.30
26186;DHT22;20067;48.764;9.176;2022-12-10T08:42:06;2.00;91.30
26186;DHT22;20067;48.764;9.176;2022-12-10T08:44:31;1.90;91.30
26186;DHT22;20067;48.764;9.176;2022-12-10T08:46:57;1.90;91.30
26186;DHT22;20067;48.764;9.176;2022-12-10T08:49:22;1.90;91.30
26186;DHT22;20067;48.764;9.176;2022-12-10T08:51:48;2.00;91.30
26186;DHT22;20067;48.764;9.176;2022-12-10T08:54:14;2.10;91.30
26186;DHT22;20067;48.764;9.176;2022-12-10T08:56:39;2.10;91.30
26186;DHT22;20067;48.764;9.176;2022-12-10T08:59:06;2.30;91.30
26186;DHT22;20067;48.764;9.176;2022-12-10T09:01:32;2.30;91.30
26186;DHT22;20067;48.764;9.176;2022-12-10T09:03:57;2.20;91.30
26186;DHT22;20067;48.764;9.176;2022-12-10T09:06:24;2.30;91.30
26186;DHT22;20067;48.764;9.176;2022-12-10T09:08:51;2.30;91.30
26186;DHT22;20067;48.764;9.176;2022-12-10T09:11:21;2.30;91.30
26186;DHT22;20067;48.764;9.176;2022-12-10T09:13:47;2.40;91.30
26186;DHT22;20067;48.764;9.176;2022-12-10T09:16:13;2.30;91.30
26186;DHT22;20067;48.764;9.176;2022-12-10T09:18:39;2.30;91.30
26186;DHT22;20067;48.764;9.176;2022-12-10T09:21:10;2.30;91.30
26186;DHT22;20067;48.764;9.176;2022-12-10T09:23:38;2.30;91.30
26186;DHT22;20067;48.764;9.176;2022-12-10T09:26:12;2.20;91.30
26186;DHT22;20067;48.764;9.176;2022-12-10T09:28:38;2.30;91.30
26186;DHT22;20067;48.764;9.176;2022-12-10T09:31:05;2.30;91.30
26186;DHT22;20067;48.764;9.176;2022-12-10T09:33:32;2.40;91.30
26186;DHT22;20067;48.764;9.176;2022-12-10T09:35:58;2.30;91.30
26186;DHT22;20067;48.764;9.176;2022-12-10T09:38:23;2.30;91.30
26186;DHT22;20067;48.764;9.176;2022-12-10T09:41:01;2.40;91.30
26186;DHT22;20067;48.764;9.176;2022-12-10T09:51:13;2.30;91.30
26186;DHT22;20067;48.764;9.176;2022-12-10T09:53:44;2.20;91.30
26186;DHT22;20067;48.764;9.176;2022-12-10T09:56:21;2.30;91.30
26186;DHT22;20067;48.764;9.176;2022-12-10T09:58:48;2.40;91.30
26186;DHT22;20067;48.764;9.176;2022-12-10T10:01:16;2.20;91.30
26186;DHT22;20067;48.764;9.176;2022-12-10T10:03:43;2.30;91.30
26186;DHT22;20067;48.764;9.176;2022-12-10T10:06:13;2.30;91.30
26186;DHT22;20067;48.764;9.176;2022-12-10T10:08:57;2.40;91.30
26186;DHT22;20067;48.764;9.176;2022-12-10T10:11:29;2.50;91.30
26186;DHT22;20067;48.764;9.176;2022-12-10T10:13:59;2.60;91.30
26186;DHT22;20067;48.764;9.176;2022-12-10T10:16:39;2.50;91.30
26186;DHT22;20067;48.764;9.176;2022-12-10T10:19:16;2.50;91.30
26186;DHT22;20067;48.764;9.176;2022-12-10T10:21:48;2.50;91.30
26186;DHT22;20067;48.764;9.176;2022-12-10T10:24:16;2.60;91.30
26186;DHT22;20067;48.764;9.176;2022-12-10T10:26:43;2.60;91.30
26186;DHT22;20067;48.764;9.176;2022-12-10T10:29:12;2.80;91.30
26186;DHT22;20067;48.764;9.176;2022-12-10T10:34:22;2.70;91.30
26186;DHT22;20067;48.764;9.176;2022-12-10T10:36:56;2.50;91.30
26186;DHT22;20067;48.764;9.176;2022-12-10T10:39:26;2.60;91.30
26186;DHT22;20067;48.764;9.176;2022-12-10T10:41:54;2.70;91.30
26186;DHT22;20067;48.764;9.176;2022-12-10T10:44:22;2.80;91.30
26186;DHT22;20067;48.764;9.176;2022-12-10T10:46:51;2.80;91.30
26186;DHT22;20067;48.764;9.176;2022-12-10T10:49:31;2.80;91.30
26186;DHT22;20067;48.764;9.176;2022-12-10T10:52:16;2.80;91.30
26186;DHT22;20067;48.764;9.176;2022-12-10T10:54:44;2.60;91.30
26186;DHT22;20067;48.764;9.176;2022-12-10T10:59:46;2.70;91.30
26186;DHT22;20067;48.764;9.176;2022-12-10T11:02:41;2.70;91.30
26186;DHT22;20067;48.764;9.176;2022-12-10T11:05:16;2.60;91.30
26186;DHT22;20067;48.764;9.176;2022-12-10T11:07:42;2.60;91.30
26186;DHT22;20067;48.764;9.176;2022-12-10T11:10:22;2.70;91.30
26186;DHT22;20067;48.764;9.176;2022-12-10T11:13:18;2.80;91.30
26186;DHT22;20067;48.764;9.176;2022-12-10T11:15:44;3.00;91.30
26186;DHT22;20067;48.764;9.176;2022-12-10T11:18:33;3.10;91.30
26186;DHT22;20067;48.764;9.176;2022-12-10T11:23:30;3.10;91.30
26186;DHT22;20067;48.764;9.176;2022-12-10T11:28:41;3.20;91.30
26186;DHT22;20067;48.764;9.176;2022-12-10T11:34:33;3.00;91.30
26186;DHT22;20067;48.764;9.176;2022-12-10T11:50:52;3.10;91.30
26186;DHT22;20067;48.764;9.176;2022-12-10T12:01:25;2.90;91.30
26186;DHT22;20067;48.764;9.176;2022-12-10T12:09:29;2.90;91.30
26186;DHT22;20067;48.764;9.176;2022-12-10T12:15:04;2.90;91.30
26186;DHT22;20067;48.764;9.176;2022-12-10T12:17:42;3.00;91.30
26186;DHT22;20067;48.764;9.176;2022-12-10T12:20:36;3.10;91.30
26186;DHT22;20067;48.764;9.176;2022-12-10T12:23:14;3.10;91.30
26186;DHT22;20067;48.764;9.176;2022-12-10T12:25:46;3.10;91.30
26186;DHT22;20067;48.764;9.176;2022-12-10T12:28:21;3.00;91.30
26186;DHT22;20067;48.764;9.176;2022-12-10T12:30:57;2.90;91.30
26186;DHT22;20067;48.764;9.176;2022-12-10T12:33:45;2.90;91.30
26186;DHT22;20067;48.764;9.176;2022-12-10T12:36:33;2.90;91.30
26186;DHT22;20067;48.764;9.176;2022-12-10T12:39:16;2.90;91.30
26186;DHT22;20067;48.764;9.176;2022-12-10T12:41:56;3.00;91.30
26186;DHT22;20067;48.764;9.176;2022-12-10T12:49:55;3.00;91.30
26186;DHT22;20067;48.764;9.176;2022-12-10T12:52:42;2.90;91.30
26186;DHT22;20067;48.764;9.176;2022-12-10T12:55:31;3.00;91.30
26186;DHT22;20067;48.764;9.176;2022-12-10T13:00:41;2.90;91.30
26186;DHT22;20067;48.764;9.176;2022-12-10T13:03:29;3.00;91.30
26186;DHT22;20067;48.764;9.176;2022-12-10T13:11:42;3.30;91.30
26186;DHT22;20067;48.764;9.176;2022-12-10T13:14:28;3.10;91.30
26186;DHT22;20067;48.764;9.176;2022-12-10T13:17:08;3.10;91.30
26186;DHT22;20067;48.764;9.176;2022-12-10T13:19:34;3.00;91.30
26186;DHT22;20067;48.764;9.176;2022-12-10T13:22:05;2.90;91.30
26186;DHT22;20067;48.764;9.176;2022-12-10T13:37:34;2.70;91.30
26186;DHT22;20067;48.764;9.176;2022-12-10T13:42:38;2.80;91.30
26186;DHT22;20067;48.764;9.176;2022-12-10T13:47:54;2.80;91.30
26186;DHT22;20067;48.764;9.176;2022-12-10T13:50:40;2.90;91.30
26186;DHT22;20067;48.764;9.176;2022-12-10T13:58:42;2.60;91.30
26186;DHT22;20067;48.764;9.176;2022-12-10T14:01:35;2.60;91.30
26186;DHT22;20067;48.764;9.176;2022-12-10T14:06:51;2.60;91.30
26186;DHT22;20067;48.764;9.176;2022-12-10T14:09:26;2.40;91.30
26186;DHT22;20067;48.764;9.176;2022-12-10T14:11:56;2.40;91.30
26186;DHT22;20067;48.764;9.176;2022-12-10T14:14:38;2.40;91.30
26186;DHT22;20067;48.764;9.176;2022-12-10T14:17:12;2.40;91.30
26186;DHT22;20067;48.764;9.176;2022-12-10T14:19:38;2.40;91.30
26186;DHT22;20067;48.764;9.176;2022-12-10T14:22:06;2.50;91.30
26186;DHT22;20067;48.764;9.176;2022-12-10T14:24:41;2.40;91.30
26186;DHT22;20067;48.764;9.176;2022-12-10T14:27:16;2.50;91.30
26186;DHT22;20067;48.764;9.176;2022-12-10T14:29:47;2.40;91.30
26186;DHT22;20067;48.764;9.176;2022-12-10T14:32:15;2.40;91.30
26186;DHT22;20067;48.764;9.176;2022-12-10T14:34:43;2.40;91.30
26186;DHT22;20067;48.764;9.176;2022-12-10T14:37:13;2.40;91.30
26186;DHT22;20067;48.764;9.176;2022-12-10T14:39:40;2.30;91.30
26186;DHT22;20067;48.764;9.176;2022-12-10T14:42:06;2.30;91.30
26186;DHT22;20067;48.764;9.176;2022-12-10T14:44:39;2.30;91.30
26186;DHT22;20067;48.764;9.176;2022-12-10T14:47:15;2.40;91.30
26186;DHT22;20067;48.764;9.176;2022-12-10T14:49:44;2.50;91.30
26186;DHT22;20067;48.764;9.176;2022-12-10T14:52:16;2.40;91.30
26186;DHT22;20067;48.764;9.176;2022-12-10T14:54:43;2.30;91.30
26186;DHT22;20067;48.764;9.176;2022-12-10T14:57:18;2.30;91.30
26186;DHT22;20067;48.764;9.176;2022-12-10T15:00:06;2.40;91.30
26186;DHT22;20067;48.764;9.176;2022-12-10T15:02:40;2.40;91.30
26186;DHT22;20067;48.764;9.176;2022-12-10T15:07:54;2.00;91.30
26186;DHT22;20067;48.764;9.176;2022-12-10T15:10:34;2.00;91.30
26186;DHT22;20067;48.764;9.176;2022-12-10T15:13:00;2.20;91.30
26186;DHT22;20067;48.764;9.176;2022-12-10T15:15:30;2.30;91.30
26186;DHT22;20067;48.764;9.176;2022-12-10T15:18:08;2.20;91.30
26186;DHT22;20067;48.764;9.176;2022-12-10T15:28:27;2.30;91.30
26186;DHT22;20067;48.764;9.176;2022-12-10T15:31:43;2.20;91.30
26186;DHT22;20067;48.764;9.176;2022-12-10T15:33:48;2.20;91.30
26186;DHT22;20067;48.764;9.176;2022-12-10T15:38:44;1.90;91.30
26186;DHT22;20067;48.764;9.176;2022-12-10T15:41:31;2.00;91.30
26186;DHT22;20067;48.764;9.176;2022-12-10T15:44:03;2.00;91.30
26186;DHT22;20067;48.764;9.176;2022-12-10T15:46:28;1.90;91.30
26186;DHT22;20067;48.764;9.176;2022-12-10T15:48:54;2.00;91.30
26186;DHT22;20067;48.764;9.176;2022-12-10T15:51:20;1.90;91.30
26186;DHT22;20067;48.764;9.176;2022-12-10T15:53:45;1.80;91.30
26186;DHT22;20067;48.764;9.176;2022-12-10T15:56:11;1.70;91.30
26186;DHT22;20067;48.764;9.176;2022-12-10T15:58:37;1.80;91.30
26186;DHT22;20067;48.764;9.176;2022-12-10T16:01:03;1.90;91.30
26186;DHT22;20067;48.764;9.176;2022-12-10T16:03:29;1.80;91.30
26186;DHT22;20067;48.764;9.176;2022-12-10T16:05:55;1.80;91.30
26186;DHT22;20067;48.764;9.176;2022-12-10T16:08:26;1.80;91.30
26186;DHT22;20067;48.764;9.176;2022-12-10T16:10:55;2.00;91.30
26186;DHT22;20067;48.764;9.176;2022-12-10T16:13:25;2.00;91.30
26186;DHT22;20067;48.764;9.176;2022-12-10T16:16:00;1.90;91.30
26186;DHT22;20067;48.764;9.176;2022-12-10T16:18:26;1.80;91.30
26186;DHT22;20067;48.764;9.176;2022-12-10T16:20:52;1.90;91.30
26186;DHT22;20067;48.764;9.176;2022-12-10T16:23:18;1.80;91.30
26186;DHT22;20067;48.764;9.176;2022-12-10T16:25:44;1.70;91.30
26186;DHT22;20067;48.764;9.176;2022-12-10T16:28:16;1.80;91.30
26186;DHT22;20067;48.764;9.176;2022-12-10T16:30:49;1.80;91.30
26186;DHT22;20067;48.764;9.176;2022-12-10T16:33:17;1.90;91.30
26186;DHT22;20067;48.764;9.176;2022-12-10T16:35:47;1.90;91.30
26186;DHT22;20067;48.764;9.176;2022-12-10T16:38:13;1.90;91.30
26186;DHT22;20067;48.764;9.176;2022-12-10T16:40:41;1.90;91.30
26186;DHT22;20067;48.764;9.176;2022-12-10T16:45:42;1.90;91.30
26186;DHT22;20067;48.764;9.176;2022-12-10T16:48:08;1.90;91.30
26186;DHT22;20067;48.764;9.176;2022-12-10T16:50:34;2.00;91.30
26186;DHT22;20067;48.764;9.176;2022-12-10T16:53:09;2.00;91.30
26186;DHT22;20067;48.764;9.176;2022-12-10T16:55:37;2.00;91.30
26186;DHT22;20067;48.764;9.176;2022-12-10T16:58:02;2.00;91.30
26186;DHT22;20067;48.764;9.176;2022-12-10T17:00:28;1.90;91.30
26186;DHT22;20067;48.764;9.176;2022-12-10T17:02:54;1.70;91.30
26186;DHT22;20067;48.764;9.176;2022-12-10T17:05:35;1.80;91.30
26186;DHT22;20067;48.764;9.176;2022-12-10T17:08:01;1.80;91.30
26186;DHT22;20067;48.764;9.176;2022-12-10T17:10:27;1.80;91.30
26186;DHT22;20067;48.764;9.176;2022-12-10T17:13:13;1.90;91.30
26186;DHT22;20067;48.764;9.176;2022-12-10T17:15:40;2.00;91.30
26186;DHT22;20067;48.764;9.176;2022-12-10T17:18:12;2.00;91.30
26186;DHT22;20067;48.764;9.176;2022-12-10T17:20:38;1.90;91.30
26186;DHT22;20067;48.764;9.176;2022-12-10T17:23:04;1.90;91.30
26186;DHT22;20067;48.764;9.176;2022-12-10T17:25:30;1.90;91.30
26186;DHT22;20067;48.764;9.176;2022-12-10T17:27:56;1.90;91.30
26186;DHT22;20067;48.764;9.176;2022-12-10T17:30:22;1.80;91.30
26186;DHT22;20067;48.764;9.176;2022-12-10T17:32:48;1.90;91.30
26186;DHT22;20067;48.764;9.176;2022-12-10T17:35:14;1.80;91.30
26186;DHT22;20067;48.764;9.176;2022-12-10T17:37:40;1.60;91.30
26186;DHT22;20067;48.764;9.176;2022-12-10T17:42:37;1.70;91.30
26186;DHT22;20067;48.764;9.176;2022-12-10T17:45:03;1.80;91.30
26186;DHT22;20067;48.764;9.176;2022-12-10T17:47:28;1.90;91.30
26186;DHT22;20067;48.764;9.176;2022-12-10T17:49:54;2.00;91.30
26186;DHT22;20067;48.764;9.176;2022-12-10T17:52:20;2.00;91.30
26186;DHT22;20067;48.764;9.176;2022-12-10T17:54:45;2.00;91.30
26186;DHT22;20067;48.764;9.176;2022-12-10T17:57:15;2.10;91.30
26186;DHT22;20067;48.764;9.176;2022-12-10T17:59:42;2.10;91.30
26186;DHT22;20067;48.764;9.176;2022-12-10T18:02:12;2.00;91.30
26186;DHT22;20067;48.764;9.176;2022-12-10T18:04:38;2.00;91.30
26186;DHT22;20067;48.764;9.176;2022-12-10T18:07:15;2.00;91.30
26186;DHT22;20067;48.764;9.176;2022-12-10T18:09:41;1.70;91.30
26186;DHT22;20067;48.764;9.176;2022-12-10T18:12:08;1.80;91.30